sensor_id;sensor_type;location;lat;lon;timestamp;temperature;humidity
26947;DHT22;14501;52.282;10.560;2023-12-20T00:00:51;6.50;99.90
26947;DHT22;14501;52.282;10.560;2023-12-20T00:03:17;6.50;99.90
26947;DHT22;14501;52.282;10.560;2023-12-20T00:05:42;6.50;99.90
26947;DHT22;14501;52.282;10.560;2023-12-20T00:08:08;6.50;99.90
26947;DHT22;14501;52.282;10.560;2023-12-20T00:10:34;5.50;99.90
26947;DHT22;14501;52.282;10.560;2023-12-20T00:12:59;6.50;99.90
26947;DHT22;14501;52.282;10.560;2023-12-20T00:15:25;6.50;99.90
26947;DHT22;14501;52.282;10.560;2023-12-20T00:17:50;6.50;99.90
26947;DHT22;14501;52.282;10.560;2023-12-20T00:20:16;6.60;99.90
26947;DHT22;14501;52.282;10.560;2023-12-20T00:22:42;6.50;99.90
26947;DHT22;14501;52.282;10.560;2023-12-20T00:25:08;6.50;99.90
26947;DHT22;14501;52.282;10.560;2023-12-20T00:27:33;6.50;99.90
26947;DHT22;14501;52.282;10.560;2023-12-20T00:29:59;6.50;99.90
26947;DHT22;14501;52.282;10.560;2023-12-20T00:32:25;6.50;99.90
26947;DHT22;14501;52.282;10.560;2023-12-20T00:34:50;6.50;99.90
26947;DHT22;14501;52.282;10.560;2023-12-20T00:37:16;6.60;99.90
26947;DHT22;14501;52.282;10.560;2023-12-20T00:39:42;6.60;99.90
26947;DHT22;14501;52.282;10.560;2023-12-20T00:42:07;6.60;99.90
26947;DHT22;14501;52.282;10.560;2023-12-20T00:44:33;6.60;99.90
26947;DHT22;14501;52.282;10.560;2023-12-20T00:46:59;6.60;99.90
26947;DHT22;14501;52.282;10.560;2023-12-20T00:49:24;6.60;99.90
26947;DHT22;14501;52.282;10.560;2023-12-20T00:51:50;6.60;99.90
26947;DHT22;14501;52.282;10.560;2023-12-20T00:54:18;6.60;99.90
26947;DHT22;14501;52.282;10.560;2023-12-20T00:56:43;6.70;99.90
26947;DHT22;14501;52.282;10.560;2023-12-20T00:59:09;6.70;99.90
26947;DHT22;14501;52.282;10.560;2023-12-20T01:01:35;6.80;99.90
26947;DHT22;14501;52.282;10.560;2023-12-20T01:04:00;6.70;99.90
26947;DHT22;14501;52.282;10.560;2023-12-20T01:06:26;6.80;99.90
26947;DHT22;14501;52.282;10.560;2023-12-20T01:08:52;6.80;99.90
26947;DHT22;14501;52.282;10.560;2023-12-20T01:11:17;6.80;99.90
26947;DHT22;14501;52.282;10.560;2023-12-20T01:13:43;6.80;99.90
26947;DHT22;14501;52.282;10.560;2023-12-20T01:16:12;6.80;99.90
26947;DHT22;14501;52.282;10.560;2023-12-20T01:18:38;6.70;99.90
26947;DHT22;14501;52.282;10.560;2023-12-20T01:21:04;6.70;99.90
26947;DHT22;14501;52.282;10.560;2023-12-20T01:23:30;6.70;99.90
26947;DHT22;14501;52.282;10.560;2023-12-20T01:25:56;6.60;99.90
26947;DHT22;14501;52.282;10.560;2023-12-20T01:28:21;6.60;99.90
26947;DHT22;14501;52.282;10.560;2023-12-20T01:30:47;6.60;99.90
26947;DHT22;14501;52.282;10.560;2023-12-20T01:33:13;6.50;99.90
26947;DHT22;14501;52.282;10.560;2023-12-20T01:35:39;6.50;99.90
26947;DHT22;14501;52.282;10.560;2023-12-20T01:38:04;6.40;99.90
26947;DHT22;14501;52.282;10.560;2023-12-20T01:40:30;6.40;99.90
26947;DHT22;14501;52.282;10.560;2023-12-20T01:43:06;6.40;99.90
26947;DHT22;14501;52.282;10.560;2023-12-20T01:45:33;6.30;99.90
26947;DHT22;14501;52.282;10.560;2023-12-20T01:47:59;6.20;99.90
26947;DHT22;14501;52.282;10.560;2023-12-20T01:50:25;6.10;99.90
26947;DHT22;14501;52.282;10.560;2023-12-20T01:52:52;6.10;99.90
26947;DHT22;14501;52.282;10.560;2023-12-20T01:55:21;6.00;99.90
26947;DHT22;14501;52.282;10.560;2023-12-20T01:57:47;5.90;99.90
26947;DHT22;14501;52.282;10.560;2023-12-20T02:00:13;5.90;99.90
26947;DHT22;14501;52.282;10.560;2023-12-20T02:02:40;5.80;99.90
26947;DHT22;14501;52.282;10.560;2023-12-20T02:05:09;5.80;99.90
26947;DHT22;14501;52.282;10.560;2023-12-20T02:07:35;5.80;99.90
26947;DHT22;14501;52.282;10.560;2023-12-20T02:10:04;5.70;99.90
26947;DHT22;14501;52.282;10.560;2023-12-20T02:12:30;5.70;99.90
26947;DHT22;14501;52.282;10.560;2023-12-20T02:14:55;5.70;99.90
26947;DHT22;14501;52.282;10.560;2023-12-20T02:19:49;5.70;99.90
26947;DHT22;14501;52.282;10.560;2023-12-20T02:22:15;7.40;99.90
26947;DHT22;14501;52.282;10.560;2023-12-20T02:24:41;5.70;99.90
26947;DHT22;14501;52.282;10.560;2023-12-20T02:27:07;5.70;99.90
26947;DHT22;14501;52.282;10.560;2023-12-20T02:29:34;7.90;99.90
26947;DHT22;14501;52.282;10.560;2023-12-20T02:32:00;5.60;99.90
26947;DHT22;14501;52.282;10.560;2023-12-20T02:34:25;5.80;99.90
26947;DHT22;14501;52.282;10.560;2023-12-20T02:36:51;5.50;99.90
26947;DHT22;14501;52.282;10.560;2023-12-20T02:39:17;5.60;99.90
26947;DHT22;14501;52.282;10.560;2023-12-20T02:41:43;5.60;99.90
26947;DHT22;14501;52.282;10.560;2023-12-20T02:44:09;5.40;99.90
26947;DHT22;14501;52.282;10.560;2023-12-20T02:46:35;5.40;99.90
26947;DHT22;14501;52.282;10.560;2023-12-20T02:49:00;5.30;99.90
26947;DHT22;14501;52.282;10.560;2023-12-20T02:51:26;5.30;99.90
26947;DHT22;14501;52.282;10.560;2023-12-20T02:53:51;5.10;99.90
26947;DHT22;14501;52.282;10.560;2023-12-20T02:56:17;5.00;99.90
26947;DHT22;14501;52.282;10.560;2023-12-20T02:58:42;5.00;99.90
26947;DHT22;14501;52.282;10.560;2023-12-20T03:01:08;4.80;99.90
26947;DHT22;14501;52.282;10.560;2023-12-20T03:03:34;4.80;99.90
26947;DHT22;14501;52.282;10.560;2023-12-20T03:06:00;6.10;99.90
26947;DHT22;14501;52.282;10.560;2023-12-20T03:08:25;7.60;99.90
26947;DHT22;14501;52.282;10.560;2023-12-20T03:10:51;4.80;99.90
26947;DHT22;14501;52.282;10.560;2023-12-20T03:13:17;4.80;99.90
26947;DHT22;14501;52.282;10.560;2023-12-20T03:15:42;4.80;99.90
26947;DHT22;14501;52.282;10.560;2023-12-20T03:18:08;4.80;99.90
26947;DHT22;14501;52.282;10.560;2023-12-20T03:20:33;4.60;99.90
26947;DHT22;14501;52.282;10.560;2023-12-20T03:23:03;4.60;99.90
26947;DHT22;14501;52.282;10.560;2023-12-20T03:25:29;4.60;99.90
26947;DHT22;14501;52.282;10.560;2023-12-20T03:27:54;4.60;99.90
26947;DHT22;14501;52.282;10.560;2023-12-20T03:30:20;4.60;99.90
26947;DHT22;14501;52.282;10.560;2023-12-20T03:32:46;4.70;99.90
26947;DHT22;14501;52.282;10.560;2023-12-20T03:35:12;4.30;99.90
26947;DHT22;14501;52.282;10.560;2023-12-20T03:37:37;4.50;99.90
26947;DHT22;14501;52.282;10.560;2023-12-20T03:40:04;4.40;99.90
26947;DHT22;14501;52.282;10.560;2023-12-20T03:42:29;4.40;99.90
26947;DHT22;14501;52.282;10.560;2023-12-20T03:44:55;4.40;99.90
26947;DHT22;14501;52.282;10.560;2023-12-20T03:49:47;6.40;99.90
26947;DHT22;14501;52.282;10.560;2023-12-20T03:52:12;4.40;99.90
26947;DHT22;14501;52.282;10.560;2023-12-20T03:54:38;4.40;99.90
26947;DHT22;14501;52.282;10.560;2023-12-20T03:57:04;4.40;99.90
26947;DHT22;14501;52.282;10.560;2023-12-20T03:59:30;4.30;99.90
26947;DHT22;14501;52.282;10.560;2023-12-20T04:01:59;4.00;99.90
26947;DHT22;14501;52.282;10.560;2023-12-20T04:04:25;4.10;99.90
26947;DHT22;14501;52.282;10.560;2023-12-20T04:06:50;4.30;99.90
26947;DHT22;14501;52.282;10.560;2023-12-20T04:09:16;4.20;99.90
26947;DHT22;14501;52.282;10.560;2023-12-20T04:11:42;3.50;99.90
26947;DHT22;14501;52.282;10.560;2023-12-20T04:14:07;4.10;99.90
26947;DHT22;14501;52.282;10.560;2023-12-20T04:16:33;4.10;99.90
26947;DHT22;14501;52.282;10.560;2023-12-20T04:18:58;3.40;99.90
26947;DHT22;14501;52.282;10.560;2023-12-20T04:21:24;7.20;99.90
26947;DHT22;14501;52.282;10.560;2023-12-20T04:23:50;3.90;99.90
26947;DHT22;14501;52.282;10.560;2023-12-20T04:26:15;4.10;99.90
26947;DHT22;14501;52.282;10.560;2023-12-20T04:28:41;4.10;99.90
26947;DHT22;14501;52.282;10.560;2023-12-20T04:33:32;4.00;99.90
26947;DHT22;14501;52.282;10.560;2023-12-20T04:35:58;4.00;99.90
26947;DHT22;14501;52.282;10.560;2023-12-20T04:38:25;4.00;99.90
26947;DHT22;14501;52.282;10.560;2023-12-20T04:40:50;4.00;99.90
26947;DHT22;14501;52.282;10.560;2023-12-20T04:43:17;4.00;99.90
26947;DHT22;14501;52.282;10.560;2023-12-20T04:45:42;3.90;99.90
26947;DHT22;14501;52.282;10.560;2023-12-20T04:48:08;4.10;99.90
26947;DHT22;14501;52.282;10.560;2023-12-20T04:50:33;3.90;99.90
26947;DHT22;14501;52.282;10.560;2023-12-20T04:52:59;4.20;99.90
26947;DHT22;14501;52.282;10.560;2023-12-20T04:55:24;4.10;99.90
26947;DHT22;14501;52.282;10.560;2023-12-20T04:57:50;4.20;99.90
26947;DHT22;14501;52.282;10.560;2023-12-20T05:00:16;4.20;99.90
26947;DHT22;14501;52.282;10.560;2023-12-20T05:02:41;4.40;99.90
26947;DHT22;14501;52.282;10.560;2023-12-20T05:05:07;3.90;99.90
26947;DHT22;14501;52.282;10.560;2023-12-20T05:07:33;4.70;99.90
26947;DHT22;14501;52.282;10.560;2023-12-20T05:09:59;4.40;99.90
26947;DHT22;14501;52.282;10.560;2023-12-20T05:12:24;4.50;99.90
26947;DHT22;14501;52.282;10.560;2023-12-20T05:14:51;4.50;99.90
26947;DHT22;14501;52.282;10.560;2023-12-20T05:17:17;4.50;99.90
26947;DHT22;14501;52.282;10.560;2023-12-20T05:19:43;6.60;99.90
26947;DHT22;14501;52.282;10.560;2023-12-20T05:22:09;4.60;99.90
26947;DHT22;14501;52.282;10.560;2023-12-20T05:24:35;4.70;99.90
26947;DHT22;14501;52.282;10.560;2023-12-20T05:27:00;4.80;99.90
26947;DHT22;14501;52.282;10.560;2023-12-20T05:29:26;4.90;99.90
26947;DHT22;14501;52.282;10.560;2023-12-20T05:31:51;4.90;99.90
26947;DHT22;14501;52.282;10.560;2023-12-20T05:34:17;4.50;99.90
26947;DHT22;14501;52.282;10.560;2023-12-20T05:36:43;5.00;99.90
26947;DHT22;14501;52.282;10.560;2023-12-20T05:39:08;5.10;99.90
26947;DHT22;14501;52.282;10.560;2023-12-20T05:41:34;4.60;99.90
26947;DHT22;14501;52.282;10.560;2023-12-20T05:43:59;5.10;99.90
26947;DHT22;14501;52.282;10.560;2023-12-20T05:46:25;5.30;99.90
26947;DHT22;14501;52.282;10.560;2023-12-20T05:48:51;5.20;99.90
26947;DHT22;14501;52.282;10.560;2023-12-20T05:51:17;6.50;99.90
26947;DHT22;14501;52.282;10.560;2023-12-20T05:53:43;5.20;99.90
26947;DHT22;14501;52.282;10.560;2023-12-20T05:56:09;5.10;99.90
26947;DHT22;14501;52.282;10.560;2023-12-20T05:58:35;4.80;99.90
26947;DHT22;14501;52.282;10.560;2023-12-20T06:01:03;5.40;99.90
26947;DHT22;14501;52.282;10.560;2023-12-20T06:03:29;7.60;99.90
26947;DHT22;14501;52.282;10.560;2023-12-20T06:05:55;5.30;99.90
26947;DHT22;14501;52.282;10.560;2023-12-20T06:08:20;6.50;99.90
26947;DHT22;14501;52.282;10.560;2023-12-20T06:10:46;4.80;99.90
26947;DHT22;14501;52.282;10.560;2023-12-20T06:13:12;5.50;99.90
26947;DHT22;14501;52.282;10.560;2023-12-20T06:15:38;5.60;99.90
26947;DHT22;14501;52.282;10.560;2023-12-20T06:18:05;5.60;99.90
26947;DHT22;14501;52.282;10.560;2023-12-20T06:20:31;5.60;99.90
26947;DHT22;14501;52.282;10.560;2023-12-20T06:22:57;7.80;99.90
26947;DHT22;14501;52.282;10.560;2023-12-20T06:25:22;5.70;99.90
26947;DHT22;14501;52.282;10.560;2023-12-20T06:27:48;5.60;99.90
26947;DHT22;14501;52.282;10.560;2023-12-20T06:30:14;5.70;99.90
26947;DHT22;14501;52.282;10.560;2023-12-20T06:32:39;5.70;99.90
26947;DHT22;14501;52.282;10.560;2023-12-20T06:35:05;6.20;99.90
26947;DHT22;14501;52.282;10.560;2023-12-20T06:37:31;5.80;99.90
26947;DHT22;14501;52.282;10.560;2023-12-20T06:39:57;7.40;99.90
26947;DHT22;14501;52.282;10.560;2023-12-20T06:42:23;5.80;99.90
26947;DHT22;14501;52.282;10.560;2023-12-20T06:44:48;6.00;99.90
26947;DHT22;14501;52.282;10.560;2023-12-20T06:47:14;7.80;99.90
26947;DHT22;14501;52.282;10.560;2023-12-20T06:49:40;6.90;99.90
26947;DHT22;14501;52.282;10.560;2023-12-20T06:52:06;5.70;99.90
26947;DHT22;14501;52.282;10.560;2023-12-20T06:54:31;5.90;99.90
26947;DHT22;14501;52.282;10.560;2023-12-20T06:56:59;6.10;99.90
26947;DHT22;14501;52.282;10.560;2023-12-20T06:59:25;5.60;99.90
26947;DHT22;14501;52.282;10.560;2023-12-20T07:01:51;5.80;99.90
26947;DHT22;14501;52.282;10.560;2023-12-20T07:04:17;6.00;99.90
26947;DHT22;14501;52.282;10.560;2023-12-20T07:06:48;5.20;99.90
26947;DHT22;14501;52.282;10.560;2023-12-20T07:09:14;5.80;99.90
26947;DHT22;14501;52.282;10.560;2023-12-20T07:11:40;6.10;99.90
26947;DHT22;14501;52.282;10.560;2023-12-20T07:14:06;5.90;99.90
26947;DHT22;14501;52.282;10.560;2023-12-20T07:16:31;5.90;99.90
26947;DHT22;14501;52.282;10.560;2023-12-20T07:18:57;6.80;99.90
26947;DHT22;14501;52.282;10.560;2023-12-20T07:21:23;6.40;99.90
26947;DHT22;14501;52.282;10.560;2023-12-20T07:23:48;6.00;99.90
26947;DHT22;14501;52.282;10.560;2023-12-20T07:26:15;6.40;99.90
26947;DHT22;14501;52.282;10.560;2023-12-20T07:28:40;7.50;99.90
26947;DHT22;14501;52.282;10.560;2023-12-20T07:31:06;9.30;99.90
26947;DHT22;14501;52.282;10.560;2023-12-20T07:33:32;8.90;99.90
26947;DHT22;14501;52.282;10.560;2023-12-20T07:35:59;9.00;99.90
26947;DHT22;14501;52.282;10.560;2023-12-20T07:38:25;6.70;99.90
26947;DHT22;14501;52.282;10.560;2023-12-20T07:40:50;6.60;99.90
26947;DHT22;14501;52.282;10.560;2023-12-20T07:43:16;6.60;99.90
26947;DHT22;14501;52.282;10.560;2023-12-20T07:45:42;7.30;99.90
26947;DHT22;14501;52.282;10.560;2023-12-20T07:48:07;6.50;99.90
26947;DHT22;14501;52.282;10.560;2023-12-20T07:50:34;8.10;99.90
26947;DHT22;14501;52.282;10.560;2023-12-20T07:52:59;6.30;99.90
26947;DHT22;14501;52.282;10.560;2023-12-20T07:55:26;8.00;99.90
26947;DHT22;14501;52.282;10.560;2023-12-20T07:57:52;5.30;99.90
26947;DHT22;14501;52.282;10.560;2023-12-20T08:00:18;6.10;99.90
26947;DHT22;14501;52.282;10.560;2023-12-20T08:02:43;6.10;99.90
26947;DHT22;14501;52.282;10.560;2023-12-20T08:05:09;6.00;99.90
26947;DHT22;14501;52.282;10.560;2023-12-20T08:07:35;5.80;99.90
26947;DHT22;14501;52.282;10.560;2023-12-20T08:10:00;6.00;99.90
26947;DHT22;14501;52.282;10.560;2023-12-20T08:12:26;6.80;99.90
26947;DHT22;14501;52.282;10.560;2023-12-20T08:14:53;5.80;99.90
26947;DHT22;14501;52.282;10.560;2023-12-20T08:17:18;7.50;99.90
26947;DHT22;14501;52.282;10.560;2023-12-20T08:19:44;6.00;99.90
26947;DHT22;14501;52.282;10.560;2023-12-20T08:22:10;5.90;99.90
26947;DHT22;14501;52.282;10.560;2023-12-20T08:24:36;6.20;99.90
26947;DHT22;14501;52.282;10.560;2023-12-20T08:27:02;6.30;99.90
26947;DHT22;14501;52.282;10.560;2023-12-20T08:29:28;6.30;99.90
26947;DHT22;14501;52.282;10.560;2023-12-20T08:31:55;6.40;99.90
26947;DHT22;14501;52.282;10.560;2023-12-20T08:34:21;6.20;99.90
26947;DHT22;14501;52.282;10.560;2023-12-20T08:39:12;6.30;99.90
26947;DHT22;14501;52.282;10.560;2023-12-20T08:41:38;7.10;99.90
26947;DHT22;14501;52.282;10.560;2023-12-20T08:44:04;9.00;99.90
26947;DHT22;14501;52.282;10.560;2023-12-20T08:46:29;8.40;99.90
26947;DHT22;14501;52.282;10.560;2023-12-20T08:48:55;6.20;99.90
26947;DHT22;14501;52.282;10.560;2023-12-20T08:53:49;6.20;99.90
26947;DHT22;14501;52.282;10.560;2023-12-20T08:56:15;6.60;99.90
26947;DHT22;14501;52.282;10.560;2023-12-20T08:58:40;8.20;99.90
26947;DHT22;14501;52.282;10.560;2023-12-20T09:01:07;6.00;99.90
26947;DHT22;14501;52.282;10.560;2023-12-20T09:03:33;6.10;99.90
26947;DHT22;14501;52.282;10.560;2023-12-20T09:05:58;8.30;99.90
26947;DHT22;14501;52.282;10.560;2023-12-20T09:08:24;7.00;99.90
26947;DHT22;14501;52.282;10.560;2023-12-20T09:10:49;5.70;99.90
26947;DHT22;14501;52.282;10.560;2023-12-20T09:13:15;6.30;99.90
26947;DHT22;14501;52.282;10.560;2023-12-20T09:15:41;6.20;99.90
26947;DHT22;14501;52.282;10.560;2023-12-20T09:18:06;6.90;99.90
26947;DHT22;14501;52.282;10.560;2023-12-20T09:20:32;7.60;99.90
26947;DHT22;14501;52.282;10.560;2023-12-20T09:22:58;6.40;99.90
26947;DHT22;14501;52.282;10.560;2023-12-20T09:25:24;6.50;99.90
26947;DHT22;14501;52.282;10.560;2023-12-20T09:27:51;8.50;99.90
26947;DHT22;14501;52.282;10.560;2023-12-20T09:30:18;8.40;99.90
26947;DHT22;14501;52.282;10.560;2023-12-20T09:32:43;7.90;99.90
26947;DHT22;14501;52.282;10.560;2023-12-20T09:35:09;8.60;99.90
26947;DHT22;14501;52.282;10.560;2023-12-20T09:37:35;7.00;99.90
26947;DHT22;14501;52.282;10.560;2023-12-20T09:40:00;8.30;99.90
26947;DHT22;14501;52.282;10.560;2023-12-20T09:42:36;6.80;99.90
26947;DHT22;14501;52.282;10.560;2023-12-20T09:45:04;7.70;99.90
26947;DHT22;14501;52.282;10.560;2023-12-20T09:47:32;7.30;99.90
26947;DHT22;14501;52.282;10.560;2023-12-20T09:49:58;7.10;99.90
26947;DHT22;14501;52.282;10.560;2023-12-20T09:52:24;8.30;99.90
26947;DHT22;14501;52.282;10.560;2023-12-20T09:54:49;7.80;99.90
26947;DHT22;14501;52.282;10.560;2023-12-20T09:57:17;7.70;99.90
26947;DHT22;14501;52.282;10.560;2023-12-20T09:59:43;7.10;99.90
26947;DHT22;14501;52.282;10.560;2023-12-20T10:02:12;8.60;99.90
26947;DHT22;14501;52.282;10.560;2023-12-20T10:04:42;7.00;99.90
26947;DHT22;14501;52.282;10.560;2023-12-20T10:07:10;7.00;99.90
26947;DHT22;14501;52.282;10.560;2023-12-20T10:09:35;7.20;99.90
26947;DHT22;14501;52.282;10.560;2023-12-20T10:12:01;8.40;99.90
26947;DHT22;14501;52.282;10.560;2023-12-20T10:14:27;6.80;99.90
26947;DHT22;14501;52.282;10.560;2023-12-20T10:16:52;6.80;99.90
26947;DHT22;14501;52.282;10.560;2023-12-20T10:19:19;7.00;99.90
26947;DHT22;14501;52.282;10.560;2023-12-20T10:21:45;7.00;99.90
26947;DHT22;14501;52.282;10.560;2023-12-20T10:24:17;7.00;99.90
26947;DHT22;14501;52.282;10.560;2023-12-20T10:26:43;7.00;99.90
26947;DHT22;14501;52.282;10.560;2023-12-20T10:29:08;6.80;99.90
26947;DHT22;14501;52.282;10.560;2023-12-20T10:31:35;8.90;99.90
26947;DHT22;14501;52.282;10.560;2023-12-20T10:34:02;7.10;99.90
26947;DHT22;14501;52.282;10.560;2023-12-20T10:36:30;7.20;99.90
26947;DHT22;14501;52.282;10.560;2023-12-20T10:38:56;9.00;99.90
26947;DHT22;14501;52.282;10.560;2023-12-20T10:41:31;7.30;99.90
26947;DHT22;14501;52.282;10.560;2023-12-20T10:44:03;7.40;99.90
26947;DHT22;14501;52.282;10.560;2023-12-20T10:46:33;7.40;99.90
26947;DHT22;14501;52.282;10.560;2023-12-20T10:49:00;7.50;99.90
26947;DHT22;14501;52.282;10.560;2023-12-20T10:51:27;7.30;99.90
26947;DHT22;14501;52.282;10.560;2023-12-20T10:53:55;7.30;99.90
26947;DHT22;14501;52.282;10.560;2023-12-20T10:56:21;7.20;99.90
26947;DHT22;14501;52.282;10.560;2023-12-20T10:58:48;7.30;99.90
26947;DHT22;14501;52.282;10.560;2023-12-20T11:01:16;7.30;99.90
26947;DHT22;14501;52.282;10.560;2023-12-20T11:03:51;7.30;99.90
26947;DHT22;14501;52.282;10.560;2023-12-20T11:06:32;7.40;99.90
26947;DHT22;14501;52.282;10.560;2023-12-20T11:09:24;7.30;99.90
26947;DHT22;14501;52.282;10.560;2023-12-20T11:12:38;7.40;99.90
26947;DHT22;14501;52.282;10.560;2023-12-20T11:15:07;7.30;99.90
26947;DHT22;14501;52.282;10.560;2023-12-20T11:17:33;7.40;99.90
26947;DHT22;14501;52.282;10.560;2023-12-20T11:22:29;7.30;99.90
26947;DHT22;14501;52.282;10.560;2023-12-20T11:25:08;7.20;99.90
26947;DHT22;14501;52.282;10.560;2023-12-20T11:27:35;7.30;99.90
26947;DHT22;14501;52.282;10.560;2023-12-20T11:30:03;7.40;99.90
26947;DHT22;14501;52.282;10.560;2023-12-20T11:32:34;7.20;99.90
26947;DHT22;14501;52.282;10.560;2023-12-20T11:35:20;7.20;99.90
26947;DHT22;14501;52.282;10.560;2023-12-20T11:37:46;7.80;99.90
26947;DHT22;14501;52.282;10.560;2023-12-20T11:40:17;7.10;99.90
26947;DHT22;14501;52.282;10.560;2023-12-20T11:42:49;7.20;99.90
26947;DHT22;14501;52.282;10.560;2023-12-20T11:45:17;7.10;99.90
26947;DHT22;14501;52.282;10.560;2023-12-20T11:47:46;7.10;99.90
26947;DHT22;14501;52.282;10.560;2023-12-20T11:50:13;8.90;99.90
26947;DHT22;14501;52.282;10.560;2023-12-20T11:52:38;7.10;99.90
26947;DHT22;14501;52.282;10.560;2023-12-20T11:55:04;7.00;99.90
26947;DHT22;14501;52.282;10.560;2023-12-20T11:57:31;7.00;99.90
26947;DHT22;14501;52.282;10.560;2023-12-20T11:59:57;8.70;99.90
26947;DHT22;14501;52.282;10.560;2023-12-20T12:02:22;6.90;99.90
26947;DHT22;14501;52.282;10.560;2023-12-20T12:04:54;6.90;99.90
26947;DHT22;14501;52.282;10.560;2023-12-20T12:07:24;6.90;99.90
26947;DHT22;14501;52.282;10.560;2023-12-20T12:09:50;7.40;99.90
26947;DHT22;14501;52.282;10.560;2023-12-20T12:12:16;6.70;99.90
26947;DHT22;14501;52.282;10.560;2023-12-20T12:14:42;6.80;99.90
26947;DHT22;14501;52.282;10.560;2023-12-20T12:17:14;6.70;99.90
26947;DHT22;14501;52.282;10.560;2023-12-20T12:19:40;6.50;99.90
26947;DHT22;14501;52.282;10.560;2023-12-20T12:22:07;6.50;99.90
26947;DHT22;14501;52.282;10.560;2023-12-20T12:24:34;6.60;99.90
26947;DHT22;14501;52.282;10.560;2023-12-20T12:27:00;6.50;99.90
26947;DHT22;14501;52.282;10.560;2023-12-20T12:29:26;7.10;99.90
26947;DHT22;14501;52.282;10.560;2023-12-20T12:31:51;6.20;99.90
26947;DHT22;14501;52.282;10.560;2023-12-20T12:34:17;6.30;99.90
26947;DHT22;14501;52.282;10.560;2023-12-20T12:39:12;6.30;99.90
26947;DHT22;14501;52.282;10.560;2023-12-20T12:41:41;6.40;99.90
26947;DHT22;14501;52.282;10.560;2023-12-20T12:49:04;6.20;99.90
26947;DHT22;14501;52.282;10.560;2023-12-20T12:51:30;6.40;99.90
26947;DHT22;14501;52.282;10.560;2023-12-20T12:53:57;6.30;99.90
26947;DHT22;14501;52.282;10.560;2023-12-20T12:56:22;6.30;99.90
26947;DHT22;14501;52.282;10.560;2023-12-20T12:58:48;6.30;99.90
26947;DHT22;14501;52.282;10.560;2023-12-20T13:01:14;6.20;99.90
26947;DHT22;14501;52.282;10.560;2023-12-20T13:03:40;6.10;99.90
26947;DHT22;14501;52.282;10.560;2023-12-20T13:06:05;6.10;99.90
26947;DHT22;14501;52.282;10.560;2023-12-20T13:08:34;6.10;99.90
26947;DHT22;14501;52.282;10.560;2023-12-20T13:11:00;6.00;99.90
26947;DHT22;14501;52.282;10.560;2023-12-20T13:13:28;6.00;99.90
26947;DHT22;14501;52.282;10.560;2023-12-20T13:15:54;5.90;99.90
26947;DHT22;14501;52.282;10.560;2023-12-20T13:18:21;5.90;99.90
26947;DHT22;14501;52.282;10.560;2023-12-20T13:20:47;5.80;99.90
26947;DHT22;14501;52.282;10.560;2023-12-20T13:23:13;5.70;99.90
26947;DHT22;14501;52.282;10.560;2023-12-20T13:25:39;5.60;99.90
26947;DHT22;14501;52.282;10.560;2023-12-20T13:28:05;5.50;99.90
26947;DHT22;14501;52.282;10.560;2023-12-20T13:30:31;5.40;99.90
26947;DHT22;14501;52.282;10.560;2023-12-20T13:32:57;5.30;99.90
26947;DHT22;14501;52.282;10.560;2023-12-20T13:35:22;5.20;99.90
26947;DHT22;14501;52.282;10.560;2023-12-20T13:37:48;5.20;99.90
26947;DHT22;14501;52.282;10.560;2023-12-20T13:40:13;5.20;99.90
26947;DHT22;14501;52.282;10.560;2023-12-20T13:42:40;5.10;99.90
26947;DHT22;14501;52.282;10.560;2023-12-20T13:45:06;5.00;99.90
26947;DHT22;14501;52.282;10.560;2023-12-20T13:47:32;4.90;99.90
26947;DHT22;14501;52.282;10.560;2023-12-20T13:49:58;4.80;99.90
26947;DHT22;14501;52.282;10.560;2023-12-20T13:52:23;4.90;99.90
26947;DHT22;14501;52.282;10.560;2023-12-20T13:54:49;4.90;99.90
26947;DHT22;14501;52.282;10.560;2023-12-20T13:57:15;4.90;99.90
26947;DHT22;14501;52.282;10.560;2023-12-20T13:59:40;5.00;99.90
26947;DHT22;14501;52.282;10.560;2023-12-20T14:02:06;5.00;99.90
26947;DHT22;14501;52.282;10.560;2023-12-20T14:04:32;5.00;99.90
26947;DHT22;14501;52.282;10.560;2023-12-20T14:06:57;5.10;99.90
26947;DHT22;14501;52.282;10.560;2023-12-20T14:09:23;5.00;99.90
26947;DHT22;14501;52.282;10.560;2023-12-20T14:11:49;5.00;99.90
26947;DHT22;14501;52.282;10.560;2023-12-20T14:14:14;4.90;99.90
26947;DHT22;14501;52.282;10.560;2023-12-20T14:16:40;5.00;99.90
26947;DHT22;14501;52.282;10.560;2023-12-20T14:19:06;5.00;99.90
26947;DHT22;14501;52.282;10.560;2023-12-20T14:21:34;5.00;99.90
26947;DHT22;14501;52.282;10.560;2023-12-20T14:24:00;5.10;99.90
26947;DHT22;14501;52.282;10.560;2023-12-20T14:26:26;5.10;99.90
26947;DHT22;14501;52.282;10.560;2023-12-20T14:28:53;5.20;99.90
26947;DHT22;14501;52.282;10.560;2023-12-20T14:31:19;5.10;99.90
26947;DHT22;14501;52.282;10.560;2023-12-20T14:33:45;5.10;99.90
26947;DHT22;14501;52.282;10.560;2023-12-20T14:36:11;5.10;99.90
26947;DHT22;14501;52.282;10.560;2023-12-20T14:38:37;5.10;99.90
26947;DHT22;14501;52.282;10.560;2023-12-20T14:41:03;5.10;99.90
26947;DHT22;14501;52.282;10.560;2023-12-20T14:43:31;5.20;99.90
26947;DHT22;14501;52.282;10.560;2023-12-20T14:45:56;5.20;99.90
26947;DHT22;14501;52.282;10.560;2023-12-20T14:48:22;5.20;99.90
26947;DHT22;14501;52.282;10.560;2023-12-20T14:50:48;5.20;99.90
26947;DHT22;14501;52.282;10.560;2023-12-20T14:53:14;5.20;99.90
26947;DHT22;14501;52.282;10.560;2023-12-20T14:55:44;5.20;99.90
26947;DHT22;14501;52.282;10.560;2023-12-20T14:58:10;5.20;99.90
26947;DHT22;14501;52.282;10.560;2023-12-20T15:00:37;5.30;99.90
26947;DHT22;14501;52.282;10.560;2023-12-20T15:03:03;5.30;99.90
26947;DHT22;14501;52.282;10.560;2023-12-20T15:05:30;5.40;99.90
26947;DHT22;14501;52.282;10.560;2023-12-20T15:07:56;5.40;99.90
26947;DHT22;14501;52.282;10.560;2023-12-20T15:10:22;5.40;99.90
26947;DHT22;14501;52.282;10.560;2023-12-20T15:12:48;5.40;99.90
26947;DHT22;14501;52.282;10.560;2023-12-20T15:15:16;5.50;99.90
26947;DHT22;14501;52.282;10.560;2023-12-20T15:17:42;5.60;99.90
26947;DHT22;14501;52.282;10.560;2023-12-20T15:20:09;5.50;99.90
26947;DHT22;14501;52.282;10.560;2023-12-20T15:22:35;5.60;99.90
26947;DHT22;14501;52.282;10.560;2023-12-20T15:25:09;5.60;99.90
26947;DHT22;14501;52.282;10.560;2023-12-20T15:27:36;5.70;99.90
26947;DHT22;14501;52.282;10.560;2023-12-20T15:30:04;5.60;99.90
26947;DHT22;14501;52.282;10.560;2023-12-20T15:32:30;5.70;99.90
26947;DHT22;14501;52.282;10.560;2023-12-20T15:34:58;5.70;99.90
26947;DHT22;14501;52.282;10.560;2023-12-20T15:37:24;5.70;99.90
26947;DHT22;14501;52.282;10.560;2023-12-20T15:39:51;5.70;99.90
26947;DHT22;14501;52.282;10.560;2023-12-20T15:42:17;5.80;99.90
26947;DHT22;14501;52.282;10.560;2023-12-20T15:44:43;5.80;99.90
26947;DHT22;14501;52.282;10.560;2023-12-20T15:47:08;5.80;99.90